sensor_id;sensor_type;location;lat;lon;timestamp;P1;durP1;ratioP1;P2;durP2;ratioP2
23058;SDS011;30585;51.502;7.218;2024-03-08T00:00:11;8.97;;;5.67;;
23058;SDS011;30585;51.502;7.218;2024-03-08T00:02:42;9.73;;;4.90;;
23058;SDS011;30585;51.502;7.218;2024-03-08T00:05:12;8.50;;;4.80;;
23058;SDS011;30585;51.502;7.218;2024-03-08T00:07:40;7.73;;;5.23;;
23058;SDS011;30585;51.502;7.218;2024-03-08T00:10:09;6.20;;;5.03;;
23058;SDS011;30585;51.502;7.218;2024-03-08T00:12:40;8.07;;;5.57;;
23058;SDS011;30585;51.502;7.218;2024-03-08T00:15:10;7.73;;;4.83;;
23058;SDS011;30585;51.502;7.218;2024-03-08T00:17:40;10.33;;;5.80;;
23058;SDS011;30585;51.502;7.218;2024-03-08T00:20:08;7.50;;;5.27;;
23058;SDS011;30585;51.502;7.218;2024-03-08T00:22:38;6.23;;;4.50;;
23058;SDS011;30585;51.502;7.218;2024-03-08T00:25:06;5.10;;;3.70;;
23058;SDS011;30585;51.502;7.218;2024-03-08T00:27:36;10.77;;;5.37;;
23058;SDS011;30585;51.502;7.218;2024-03-08T00:30:05;4.90;;;3.90;;
23058;SDS011;30585;51.502;7.218;2024-03-08T00:32:34;7.40;;;4.43;;
23058;SDS011;30585;51.502;7.218;2024-03-08T00:35:04;19.93;;;4.63;;
23058;SDS011;30585;51.502;7.218;2024-03-08T00:37:33;6.03;;;4.53;;
23058;SDS011;30585;51.502;7.218;2024-03-08T00:40:03;5.60;;;4.70;;
23058;SDS011;30585;51.502;7.218;2024-03-08T00:42:33;8.60;;;5.97;;
23058;SDS011;30585;51.502;7.218;2024-03-08T00:45:01;6.10;;;5.17;;
23058;SDS011;30585;51.502;7.218;2024-03-08T00:47:29;8.90;;;5.40;;
23058;SDS011;30585;51.502;7.218;2024-03-08T00:49:57;5.63;;;4.43;;
23058;SDS011;30585;51.502;7.218;2024-03-08T00:52:24;8.20;;;5.20;;
23058;SDS011;30585;51.502;7.218;2024-03-08T00:54:52;5.50;;;4.13;;
23058;SDS011;30585;51.502;7.218;2024-03-08T00:57:22;9.30;;;5.77;;
23058;SDS011;30585;51.502;7.218;2024-03-08T00:59:49;8.70;;;4.97;;
23058;SDS011;30585;51.502;7.218;2024-03-08T01:02:19;5.03;;;3.97;;
23058;SDS011;30585;51.502;7.218;2024-03-08T01:04:49;9.27;;;5.03;;
23058;SDS011;30585;51.502;7.218;2024-03-08T01:07:16;7.30;;;5.30;;
23058;SDS011;30585;51.502;7.218;2024-03-08T01:09:44;5.47;;;4.23;;
23058;SDS011;30585;51.502;7.218;2024-03-08T01:12:12;7.23;;;4.90;;
23058;SDS011;30585;51.502;7.218;2024-03-08T01:14:41;7.30;;;5.20;;
23058;SDS011;30585;51.502;7.218;2024-03-08T01:17:09;12.17;;;5.63;;
23058;SDS011;30585;51.502;7.218;2024-03-08T01:19:38;5.17;;;4.00;;
23058;SDS011;30585;51.502;7.218;2024-03-08T01:22:05;8.43;;;5.03;;
23058;SDS011;30585;51.502;7.218;2024-03-08T01:24:33;6.00;;;5.43;;
23058;SDS011;30585;51.502;7.218;2024-03-08T01:27:02;5.07;;;4.37;;
23058;SDS011;30585;51.502;7.218;2024-03-08T01:29:30;7.93;;;4.53;;
23058;SDS011;30585;51.502;7.218;2024-03-08T01:32:00;6.97;;;5.53;;
23058;SDS011;30585;51.502;7.218;2024-03-08T01:34:28;8.37;;;6.37;;
23058;SDS011;30585;51.502;7.218;2024-03-08T01:36:56;8.17;;;6.00;;
23058;SDS011;30585;51.502;7.218;2024-03-08T01:39:23;6.40;;;5.27;;
23058;SDS011;30585;51.502;7.218;2024-03-08T01:41:51;6.70;;;5.03;;
23058;SDS011;30585;51.502;7.218;2024-03-08T01:44:20;8.17;;;6.13;;
23058;SDS011;30585;51.502;7.218;2024-03-08T01:46:48;8.07;;;5.37;;
23058;SDS011;30585;51.502;7.218;2024-03-08T01:49:20;16.30;;;6.20;;
23058;SDS011;30585;51.502;7.218;2024-03-08T01:51:50;7.80;;;5.23;;
23058;SDS011;30585;51.502;7.218;2024-03-08T01:54:18;8.20;;;4.33;;
23058;SDS011;30585;51.502;7.218;2024-03-08T01:56:46;9.20;;;4.77;;
23058;SDS011;30585;51.502;7.218;2024-03-08T01:59:15;6.63;;;4.87;;
23058;SDS011;30585;51.502;7.218;2024-03-08T02:01:43;6.20;;;4.73;;
23058;SDS011;30585;51.502;7.218;2024-03-08T02:04:11;5.43;;;4.93;;
23058;SDS011;30585;51.502;7.218;2024-03-08T02:06:40;10.10;;;5.67;;
23058;SDS011;30585;51.502;7.218;2024-03-08T02:09:08;4.77;;;4.33;;
23058;SDS011;30585;51.502;7.218;2024-03-08T02:11:36;16.37;;;5.97;;
23058;SDS011;30585;51.502;7.218;2024-03-08T02:14:04;8.13;;;4.10;;
23058;SDS011;30585;51.502;7.218;2024-03-08T02:16:33;10.00;;;5.37;;
23058;SDS011;30585;51.502;7.218;2024-03-08T02:19:01;6.27;;;4.13;;
23058;SDS011;30585;51.502;7.218;2024-03-08T02:21:30;8.77;;;5.57;;
23058;SDS011;30585;51.502;7.218;2024-03-08T02:23:58;8.00;;;3.87;;
23058;SDS011;30585;51.502;7.218;2024-03-08T02:26:26;5.40;;;3.70;;
23058;SDS011;30585;51.502;7.218;2024-03-08T02:28:54;11.83;;;5.47;;
23058;SDS011;30585;51.502;7.218;2024-03-08T02:31:22;8.23;;;6.13;;
23058;SDS011;30585;51.502;7.218;2024-03-08T02:33:49;7.60;;;4.80;;
23058;SDS011;30585;51.502;7.218;2024-03-08T02:36:17;6.80;;;4.57;;
23058;SDS011;30585;51.502;7.218;2024-03-08T02:38:46;7.50;;;4.57;;
23058;SDS011;30585;51.502;7.218;2024-03-08T02:41:14;7.43;;;4.60;;
23058;SDS011;30585;51.502;7.218;2024-03-08T02:43:42;5.50;;;4.50;;
23058;SDS011;30585;51.502;7.218;2024-03-08T02:46:11;5.93;;;3.63;;
23058;SDS011;30585;51.502;7.218;2024-03-08T02:48:39;5.80;;;4.93;;
23058;SDS011;30585;51.502;7.218;2024-03-08T02:51:07;9.83;;;4.87;;
23058;SDS011;30585;51.502;7.218;2024-03-08T02:53:37;6.33;;;4.07;;
23058;SDS011;30585;51.502;7.218;2024-03-08T02:56:06;4.10;;;3.63;;
23058;SDS011;30585;51.502;7.218;2024-03-08T02:58:35;5.53;;;3.77;;
23058;SDS011;30585;51.502;7.218;2024-03-08T03:01:03;6.83;;;4.43;;
23058;SDS011;30585;51.502;7.218;2024-03-08T03:03:31;7.57;;;4.90;;
23058;SDS011;30585;51.502;7.218;2024-03-08T03:05:59;8.77;;;4.57;;
23058;SDS011;30585;51.502;7.218;2024-03-08T03:08:27;7.87;;;6.00;;
23058;SDS011;30585;51.502;7.218;2024-03-08T03:10:55;9.07;;;5.07;;
23058;SDS011;30585;51.502;7.218;2024-03-08T03:13:24;6.57;;;4.13;;
23058;SDS011;30585;51.502;7.218;2024-03-08T03:15:52;8.20;;;5.80;;
23058;SDS011;30585;51.502;7.218;2024-03-08T03:18:18;14.03;;;6.67;;
23058;SDS011;30585;51.502;7.218;2024-03-08T03:20:50;8.97;;;4.87;;
23058;SDS011;30585;51.502;7.218;2024-03-08T03:23:18;8.00;;;4.83;;
23058;SDS011;30585;51.502;7.218;2024-03-08T03:25:47;7.03;;;5.83;;
23058;SDS011;30585;51.502;7.218;2024-03-08T03:28:14;6.83;;;4.57;;
23058;SDS011;30585;51.502;7.218;2024-03-08T03:30:45;8.23;;;4.57;;
23058;SDS011;30585;51.502;7.218;2024-03-08T03:33:13;7.50;;;4.03;;
23058;SDS011;30585;51.502;7.218;2024-03-08T03:35:43;8.53;;;5.17;;
23058;SDS011;30585;51.502;7.218;2024-03-08T03:38:12;5.80;;;5.10;;
23058;SDS011;30585;51.502;7.218;2024-03-08T03:40:40;11.13;;;5.33;;
23058;SDS011;30585;51.502;7.218;2024-03-08T03:43:08;9.43;;;4.60;;
23058;SDS011;30585;51.502;7.218;2024-03-08T03:45:38;5.77;;;4.03;;
23058;SDS011;30585;51.502;7.218;2024-03-08T03:48:09;7.40;;;5.10;;
23058;SDS011;30585;51.502;7.218;2024-03-08T03:50:38;9.47;;;5.70;;
23058;SDS011;30585;51.502;7.218;2024-03-08T03:53:07;5.77;;;3.63;;
23058;SDS011;30585;51.502;7.218;2024-03-08T03:55:36;5.03;;;3.63;;
23058;SDS011;30585;51.502;7.218;2024-03-08T03:58:07;9.20;;;6.27;;
23058;SDS011;30585;51.502;7.218;2024-03-08T04:00:36;7.73;;;5.60;;
23058;SDS011;30585;51.502;7.218;2024-03-08T04:03:04;7.30;;;5.13;;
23058;SDS011;30585;51.502;7.218;2024-03-08T04:05:34;10.53;;;5.63;;
23058;SDS011;30585;51.502;7.218;2024-03-08T04:08:02;10.53;;;4.93;;
23058;SDS011;30585;51.502;7.218;2024-03-08T04:10:30;5.77;;;5.20;;
23058;SDS011;30585;51.502;7.218;2024-03-08T04:12:58;8.73;;;4.53;;
23058;SDS011;30585;51.502;7.218;2024-03-08T04:15:25;6.47;;;5.73;;
23058;SDS011;30585;51.502;7.218;2024-03-08T04:17:53;10.30;;;4.83;;
23058;SDS011;30585;51.502;7.218;2024-03-08T04:20:21;8.37;;;5.47;;
23058;SDS011;30585;51.502;7.218;2024-03-08T04:22:50;7.23;;;5.90;;
23058;SDS011;30585;51.502;7.218;2024-03-08T04:25:18;7.73;;;4.93;;
23058;SDS011;30585;51.502;7.218;2024-03-08T04:27:46;7.17;;;4.13;;
23058;SDS011;30585;51.502;7.218;2024-03-08T04:30:15;6.93;;;4.73;;
23058;SDS011;30585;51.502;7.218;2024-03-08T04:32:43;6.40;;;4.40;;
23058;SDS011;30585;51.502;7.218;2024-03-08T04:35:11;7.43;;;5.00;;
23058;SDS011;30585;51.502;7.218;2024-03-08T04:37:40;10.33;;;6.63;;
23058;SDS011;30585;51.502;7.218;2024-03-08T04:40:10;6.13;;;4.17;;
23058;SDS011;30585;51.502;7.218;2024-03-08T04:42:38;11.40;;;4.33;;
23058;SDS011;30585;51.502;7.218;2024-03-08T04:45:08;7.57;;;4.17;;
23058;SDS011;30585;51.502;7.218;2024-03-08T04:47:37;13.70;;;6.30;;
23058;SDS011;30585;51.502;7.218;2024-03-08T04:50:05;8.70;;;5.77;;
23058;SDS011;30585;51.502;7.218;2024-03-08T04:52:35;7.17;;;5.20;;
23058;SDS011;30585;51.502;7.218;2024-03-08T04:55:03;9.33;;;5.57;;
23058;SDS011;30585;51.502;7.218;2024-03-08T04:57:33;8.57;;;4.37;;
23058;SDS011;30585;51.502;7.218;2024-03-08T05:00:01;7.10;;;5.43;;
23058;SDS011;30585;51.502;7.218;2024-03-08T05:02:31;9.63;;;4.80;;
23058;SDS011;30585;51.502;7.218;2024-03-08T05:04:58;11.30;;;5.73;;
23058;SDS011;30585;51.502;7.218;2024-03-08T05:07:27;9.53;;;5.33;;
23058;SDS011;30585;51.502;7.218;2024-03-08T05:09:54;9.90;;;5.23;;
23058;SDS011;30585;51.502;7.218;2024-03-08T05:12:22;6.03;;;4.40;;
23058;SDS011;30585;51.502;7.218;2024-03-08T05:14:52;6.27;;;4.47;;
23058;SDS011;30585;51.502;7.218;2024-03-08T05:17:20;9.93;;;6.40;;
23058;SDS011;30585;51.502;7.218;2024-03-08T05:19:50;12.20;;;6.40;;
23058;SDS011;30585;51.502;7.218;2024-03-08T05:22:18;8.00;;;5.97;;
23058;SDS011;30585;51.502;7.218;2024-03-08T05:24:46;9.07;;;5.03;;
23058;SDS011;30585;51.502;7.218;2024-03-08T05:27:13;7.90;;;4.20;;
23058;SDS011;30585;51.502;7.218;2024-03-08T05:29:41;10.50;;;7.90;;
23058;SDS011;30585;51.502;7.218;2024-03-08T05:32:09;6.00;;;4.07;;
23058;SDS011;30585;51.502;7.218;2024-03-08T05:34:38;10.07;;;6.40;;
23058;SDS011;30585;51.502;7.218;2024-03-08T05:37:06;8.97;;;5.90;;
23058;SDS011;30585;51.502;7.218;2024-03-08T05:39:33;9.27;;;6.17;;
23058;SDS011;30585;51.502;7.218;2024-03-08T05:42:01;5.90;;;4.77;;
23058;SDS011;30585;51.502;7.218;2024-03-08T05:44:29;11.80;;;6.20;;
23058;SDS011;30585;51.502;7.218;2024-03-08T05:46:57;5.10;;;4.70;;
23058;SDS011;30585;51.502;7.218;2024-03-08T05:49:26;5.83;;;4.37;;
23058;SDS011;30585;51.502;7.218;2024-03-08T05:51:54;6.60;;;4.27;;
23058;SDS011;30585;51.502;7.218;2024-03-08T05:54:22;7.23;;;5.10;;
23058;SDS011;30585;51.502;7.218;2024-03-08T05:56:51;10.57;;;6.53;;
23058;SDS011;30585;51.502;7.218;2024-03-08T05:59:19;6.60;;;4.40;;
23058;SDS011;30585;51.502;7.218;2024-03-08T06:01:49;9.53;;;5.97;;
23058;SDS011;30585;51.502;7.218;2024-03-08T06:04:17;8.63;;;5.10;;
23058;SDS011;30585;51.502;7.218;2024-03-08T06:06:46;10.13;;;6.53;;
23058;SDS011;30585;51.502;7.218;2024-03-08T06:09:17;8.83;;;5.93;;
23058;SDS011;30585;51.502;7.218;2024-03-08T06:11:51;8.03;;;5.27;;
23058;SDS011;30585;51.502;7.218;2024-03-08T06:14:20;8.40;;;5.33;;
23058;SDS011;30585;51.502;7.218;2024-03-08T06:16:49;9.83;;;5.80;;
23058;SDS011;30585;51.502;7.218;2024-03-08T06:19:17;8.10;;;6.20;;
23058;SDS011;30585;51.502;7.218;2024-03-08T06:21:46;12.33;;;6.57;;
23058;SDS011;30585;51.502;7.218;2024-03-08T06:24:14;5.53;;;4.87;;
23058;SDS011;30585;51.502;7.218;2024-03-08T06:26:42;9.57;;;5.30;;
23058;SDS011;30585;51.502;7.218;2024-03-08T06:29:10;13.87;;;5.93;;
23058;SDS011;30585;51.502;7.218;2024-03-08T06:31:39;7.30;;;5.60;;
23058;SDS011;30585;51.502;7.218;2024-03-08T06:34:07;8.90;;;5.33;;
23058;SDS011;30585;51.502;7.218;2024-03-08T06:36:35;10.37;;;5.30;;
23058;SDS011;30585;51.502;7.218;2024-03-08T06:39:06;10.50;;;5.57;;
23058;SDS011;30585;51.502;7.218;2024-03-08T06:41:36;6.80;;;5.57;;
23058;SDS011;30585;51.502;7.218;2024-03-08T06:44:04;10.10;;;5.47;;
23058;SDS011;30585;51.502;7.218;2024-03-08T06:46:34;6.03;;;4.10;;
23058;SDS011;30585;51.502;7.218;2024-03-08T06:49:02;6.17;;;5.57;;
23058;SDS011;30585;51.502;7.218;2024-03-08T06:51:30;9.60;;;5.87;;
23058;SDS011;30585;51.502;7.218;2024-03-08T06:53:58;6.80;;;5.53;;
23058;SDS011;30585;51.502;7.218;2024-03-08T06:56:27;6.87;;;4.80;;
23058;SDS011;30585;51.502;7.218;2024-03-08T06:58:56;10.30;;;7.07;;
23058;SDS011;30585;51.502;7.218;2024-03-08T07:01:23;8.77;;;5.77;;
23058;SDS011;30585;51.502;7.218;2024-03-08T07:03:51;11.57;;;6.40;;
23058;SDS011;30585;51.502;7.218;2024-03-08T07:06:19;9.73;;;5.17;;
23058;SDS011;30585;51.502;7.218;2024-03-08T07:08:47;8.90;;;6.47;;
23058;SDS011;30585;51.502;7.218;2024-03-08T07:11:15;9.67;;;6.80;;
23058;SDS011;30585;51.502;7.218;2024-03-08T07:13:46;9.17;;;6.17;;
23058;SDS011;30585;51.502;7.218;2024-03-08T07:16:14;8.10;;;5.50;;
23058;SDS011;30585;51.502;7.218;2024-03-08T07:18:42;7.97;;;5.30;;
23058;SDS011;30585;51.502;7.218;2024-03-08T07:21:10;8.30;;;5.00;;
23058;SDS011;30585;51.502;7.218;2024-03-08T07:23:38;13.27;;;7.50;;
23058;SDS011;30585;51.502;7.218;2024-03-08T07:26:30;9.53;;;6.27;;
23058;SDS011;30585;51.502;7.218;2024-03-08T07:28:59;10.07;;;7.60;;
23058;SDS011;30585;51.502;7.218;2024-03-08T07:31:26;8.83;;;6.90;;
23058;SDS011;30585;51.502;7.218;2024-03-08T07:34:04;10.87;;;5.63;;
23058;SDS011;30585;51.502;7.218;2024-03-08T07:36:33;10.70;;;5.83;;
23058;SDS011;30585;51.502;7.218;2024-03-08T07:39:02;12.00;;;6.37;;
23058;SDS011;30585;51.502;7.218;2024-03-08T07:41:34;11.60;;;7.90;;
23058;SDS011;30585;51.502;7.218;2024-03-08T07:44:04;7.47;;;5.53;;
23058;SDS011;30585;51.502;7.218;2024-03-08T07:46:32;11.30;;;7.87;;
23058;SDS011;30585;51.502;7.218;2024-03-08T07:49:00;9.73;;;5.10;;
23058;SDS011;30585;51.502;7.218;2024-03-08T07:51:29;10.03;;;5.90;;
23058;SDS011;30585;51.502;7.218;2024-03-08T07:53:57;10.57;;;7.30;;
23058;SDS011;30585;51.502;7.218;2024-03-08T07:56:26;9.80;;;6.40;;
23058;SDS011;30585;51.502;7.218;2024-03-08T07:58:54;9.33;;;6.07;;
23058;SDS011;30585;51.502;7.218;2024-03-08T08:01:23;11.00;;;6.73;;
23058;SDS011;30585;51.502;7.218;2024-03-08T08:03:51;13.43;;;6.83;;
23058;SDS011;30585;51.502;7.218;2024-03-08T08:06:19;10.10;;;6.93;;
23058;SDS011;30585;51.502;7.218;2024-03-08T08:08:46;14.03;;;6.67;;
23058;SDS011;30585;51.502;7.218;2024-03-08T08:11:14;12.07;;;7.53;;
23058;SDS011;30585;51.502;7.218;2024-03-08T08:13:43;10.80;;;6.27;;
23058;SDS011;30585;51.502;7.218;2024-03-08T08:16:11;9.53;;;6.40;;
23058;SDS011;30585;51.502;7.218;2024-03-08T08:18:40;13.13;;;7.40;;
23058;SDS011;30585;51.502;7.218;2024-03-08T08:21:08;11.27;;;6.90;;
23058;SDS011;30585;51.502;7.218;2024-03-08T08:23:37;11.47;;;7.60;;
23058;SDS011;30585;51.502;7.218;2024-03-08T08:26:05;13.20;;;7.43;;
23058;SDS011;30585;51.502;7.218;2024-03-08T08:28:34;10.70;;;6.53;;
23058;SDS011;30585;51.502;7.218;2024-03-08T08:31:01;14.53;;;7.97;;
23058;SDS011;30585;51.502;7.218;2024-03-08T08:33:30;11.93;;;6.73;;
23058;SDS011;30585;51.502;7.218;2024-03-08T08:35:59;16.13;;;8.30;;
23058;SDS011;30585;51.502;7.218;2024-03-08T08:38:27;13.63;;;7.10;;
23058;SDS011;30585;51.502;7.218;2024-03-08T08:40:55;11.40;;;6.67;;
23058;SDS011;30585;51.502;7.218;2024-03-08T08:43:23;12.23;;;7.63;;
23058;SDS011;30585;51.502;7.218;2024-03-08T08:45:51;16.00;;;8.13;;
23058;SDS011;30585;51.502;7.218;2024-03-08T08:48:21;9.70;;;6.03;;
23058;SDS011;30585;51.502;7.218;2024-03-08T08:50:49;13.47;;;8.17;;
23058;SDS011;30585;51.502;7.218;2024-03-08T08:53:20;12.10;;;7.27;;
23058;SDS011;30585;51.502;7.218;2024-03-08T08:55:48;11.07;;;6.20;;
23058;SDS011;30585;51.502;7.218;2024-03-08T08:58:16;10.23;;;7.40;;
23058;SDS011;30585;51.502;7.218;2024-03-08T09:00:44;12.40;;;7.43;;
23058;SDS011;30585;51.502;7.218;2024-03-08T09:03:12;12.87;;;7.50;;
23058;SDS011;30585;51.502;7.218;2024-03-08T09:05:40;12.23;;;7.37;;
23058;SDS011;30585;51.502;7.218;2024-03-08T09:08:11;15.57;;;7.87;;
23058;SDS011;30585;51.502;7.218;2024-03-08T09:10:41;12.83;;;7.77;;
23058;SDS011;30585;51.502;7.218;2024-03-08T09:13:09;13.00;;;6.90;;
23058;SDS011;30585;51.502;7.218;2024-03-08T09:15:49;12.83;;;6.33;;
23058;SDS011;30585;51.502;7.218;2024-03-08T09:18:19;16.03;;;7.50;;
23058;SDS011;30585;51.502;7.218;2024-03-08T09:20:46;13.47;;;7.60;;
23058;SDS011;30585;51.502;7.218;2024-03-08T09:23:14;10.83;;;6.10;;
23058;SDS011;30585;51.502;7.218;2024-03-08T09:25:44;19.37;;;9.10;;
23058;SDS011;30585;51.502;7.218;2024-03-08T09:28:13;12.53;;;7.67;;
23058;SDS011;30585;51.502;7.218;2024-03-08T09:30:42;10.03;;;6.43;;
23058;SDS011;30585;51.502;7.218;2024-03-08T09:33:22;9.60;;;5.47;;
23058;SDS011;30585;51.502;7.218;2024-03-08T09:35:50;13.27;;;7.40;;
23058;SDS011;30585;51.502;7.218;2024-03-08T09:38:19;14.60;;;7.50;;
23058;SDS011;30585;51.502;7.218;2024-03-08T09:40:49;13.43;;;6.67;;
23058;SDS011;30585;51.502;7.218;2024-03-08T09:43:16;15.30;;;8.23;;
23058;SDS011;30585;51.502;7.218;2024-03-08T09:45:48;13.10;;;5.67;;
23058;SDS011;30585;51.502;7.218;2024-03-08T09:48:17;13.30;;;7.47;;
23058;SDS011;30585;51.502;7.218;2024-03-08T09:50:46;9.57;;;6.77;;
23058;SDS011;30585;51.502;7.218;2024-03-08T09:53:14;12.80;;;6.97;;
23058;SDS011;30585;51.502;7.218;2024-03-08T09:55:43;11.53;;;6.67;;
23058;SDS011;30585;51.502;7.218;2024-03-08T09:58:13;11.87;;;7.13;;
23058;SDS011;30585;51.502;7.218;2024-03-08T10:01:03;15.37;;;7.70;;
23058;SDS011;30585;51.502;7.218;2024-03-08T10:03:32;15.93;;;7.63;;
23058;SDS011;30585;51.502;7.218;2024-03-08T10:06:01;11.80;;;6.97;;
23058;SDS011;30585;51.502;7.218;2024-03-08T10:08:29;14.83;;;8.13;;
23058;SDS011;30585;51.502;7.218;2024-03-08T10:10:57;18.60;;;7.77;;
23058;SDS011;30585;51.502;7.218;2024-03-08T10:13:27;11.77;;;7.80;;
23058;SDS011;30585;51.502;7.218;2024-03-08T10:15:55;11.50;;;7.20;;
23058;SDS011;30585;51.502;7.218;2024-03-08T10:18:23;12.27;;;7.03;;
23058;SDS011;30585;51.502;7.218;2024-03-08T10:21:01;10.80;;;6.67;;
23058;SDS011;30585;51.502;7.218;2024-03-08T10:23:31;16.57;;;8.77;;
23058;SDS011;30585;51.502;7.218;2024-03-08T10:26:09;15.00;;;8.53;;
23058;SDS011;30585;51.502;7.218;2024-03-08T10:28:42;12.17;;;7.30;;
23058;SDS011;30585;51.502;7.218;2024-03-08T10:31:12;15.93;;;7.93;;
23058;SDS011;30585;51.502;7.218;2024-03-08T10:33:44;14.07;;;7.43;;
23058;SDS011;30585;51.502;7.218;2024-03-08T10:36:12;16.77;;;7.87;;
23058;SDS011;30585;51.502;7.218;2024-03-08T10:38:42;15.47;;;8.20;;
23058;SDS011;30585;51.502;7.218;2024-03-08T10:41:13;15.87;;;7.93;;
23058;SDS011;30585;51.502;7.218;2024-03-08T10:43:56;12.70;;;7.40;;
23058;SDS011;30585;51.502;7.218;2024-03-08T10:46:42;14.70;;;8.37;;
23058;SDS011;30585;51.502;7.218;2024-03-08T10:49:25;12.83;;;7.83;;
23058;SDS011;30585;51.502;7.218;2024-03-08T10:51:58;11.57;;;7.43;;
23058;SDS011;30585;51.502;7.218;2024-03-08T10:54:26;12.70;;;7.77;;
23058;SDS011;30585;51.502;7.218;2024-03-08T10:56:55;12.33;;;7.00;;
23058;SDS011;30585;51.502;7.218;2024-03-08T10:59:24;16.10;;;7.47;;
23058;SDS011;30585;51.502;7.218;2024-03-08T11:01:54;13.53;;;7.80;;
23058;SDS011;30585;51.502;7.218;2024-03-08T11:04:22;12.13;;;7.67;;
23058;SDS011;30585;51.502;7.218;2024-03-08T11:06:50;13.87;;;7.73;;
23058;SDS011;30585;51.502;7.218;2024-03-08T11:09:29;12.60;;;8.17;;
23058;SDS011;30585;51.502;7.218;2024-03-08T11:14:53;14.27;;;7.83;;
23058;SDS011;30585;51.502;7.218;2024-03-08T11:17:25;14.93;;;7.17;;
23058;SDS011;30585;51.502;7.218;2024-03-08T11:20:10;17.13;;;7.90;;
23058;SDS011;30585;51.502;7.218;2024-03-08T11:22:47;13.83;;;7.20;;
23058;SDS011;30585;51.502;7.218;2024-03-08T11:25:36;11.77;;;8.00;;
23058;SDS011;30585;51.502;7.218;2024-03-08T11:28:08;12.27;;;6.93;;
23058;SDS011;30585;51.502;7.218;2024-03-08T11:31:21;10.90;;;6.30;;
23058;SDS011;30585;51.502;7.218;2024-03-08T11:33:56;12.70;;;7.83;;
23058;SDS011;30585;51.502;7.218;2024-03-08T11:36:24;11.60;;;7.00;;
23058;SDS011;30585;51.502;7.218;2024-03-08T11:38:52;12.20;;;7.23;;
23058;SDS011;30585;51.502;7.218;2024-03-08T11:41:22;14.13;;;6.73;;
23058;SDS011;30585;51.502;7.218;2024-03-08T11:44:01;13.23;;;7.30;;
23058;SDS011;30585;51.502;7.218;2024-03-08T11:46:34;13.70;;;7.30;;
23058;SDS011;30585;51.502;7.218;2024-03-08T11:49:01;10.17;;;6.20;;
23058;SDS011;30585;51.502;7.218;2024-03-08T11:51:31;11.63;;;7.13;;
23058;SDS011;30585;51.502;7.218;2024-03-08T11:53:59;14.57;;;7.73;;
23058;SDS011;30585;51.502;7.218;2024-03-08T11:56:27;14.70;;;7.73;;
23058;SDS011;30585;51.502;7.218;2024-03-08T11:58:57;14.10;;;7.43;;
23058;SDS011;30585;51.502;7.218;2024-03-08T12:01:25;15.27;;;7.80;;
23058;SDS011;30585;51.502;7.218;2024-03-08T12:03:55;11.60;;;6.47;;
23058;SDS011;30585;51.502;7.218;2024-03-08T12:06:25;13.60;;;7.43;;
23058;SDS011;30585;51.502;7.218;2024-03-08T12:08:54;14.50;;;6.90;;
23058;SDS011;30585;51.502;7.218;2024-03-08T12:11:21;15.93;;;7.43;;
23058;SDS011;30585;51.502;7.218;2024-03-08T12:13:51;10.80;;;5.67;;
23058;SDS011;30585;51.502;7.218;2024-03-08T12:16:20;12.80;;;7.03;;
23058;SDS011;30585;51.502;7.218;2024-03-08T12:18:48;13.97;;;7.37;;
23058;SDS011;30585;51.502;7.218;2024-03-08T12:21:21;10.57;;;6.03;;
23058;SDS011;30585;51.502;7.218;2024-03-08T12:24:01;10.20;;;5.75;;
23058;SDS011;30585;51.502;7.218;2024-03-08T12:26:31;13.93;;;7.03;;
23058;SDS011;30585;51.502;7.218;2024-03-08T12:29:14;11.13;;;6.60;;
23058;SDS011;30585;51.502;7.218;2024-03-08T12:31:43;11.40;;;6.70;;
23058;SDS011;30585;51.502;7.218;2024-03-08T12:34:13;7.85;;;5.63;;
23058;SDS011;30585;51.502;7.218;2024-03-08T12:36:46;9.82;;;5.07;;
23058;SDS011;30585;51.502;7.218;2024-03-08T12:39:18;8.48;;;5.13;;
23058;SDS011;30585;51.502;7.218;2024-03-08T12:41:49;9.63;;;5.22;;
23058;SDS011;30585;51.502;7.218;2024-03-08T12:44:18;8.20;;;4.60;;
23058;SDS011;30585;51.502;7.218;2024-03-08T12:46:48;8.68;;;4.78;;
23058;SDS011;30585;51.502;7.218;2024-03-08T12:49:19;7.40;;;4.25;;
23058;SDS011;30585;51.502;7.218;2024-03-08T12:51:50;8.93;;;4.38;;
23058;SDS011;30585;51.502;7.218;2024-03-08T12:54:19;6.97;;;3.75;;
23058;SDS011;30585;51.502;7.218;2024-03-08T12:56:49;5.40;;;3.53;;
23058;SDS011;30585;51.502;7.218;2024-03-08T12:59:19;7.45;;;4.05;;
23058;SDS011;30585;51.502;7.218;2024-03-08T13:01:48;6.55;;;3.63;;
23058;SDS011;30585;51.502;7.218;2024-03-08T13:04:17;7.30;;;4.20;;
23058;SDS011;30585;51.502;7.218;2024-03-08T13:06:47;6.40;;;3.83;;
23058;SDS011;30585;51.502;7.218;2024-03-08T13:09:22;5.20;;;3.72;;
23058;SDS011;30585;51.502;7.218;2024-03-08T13:11:50;6.22;;;3.58;;
23058;SDS011;30585;51.502;7.218;2024-03-08T13:14:20;5.82;;;3.90;;
23058;SDS011;30585;51.502;7.218;2024-03-08T13:16:47;8.25;;;4.38;;
23058;SDS011;30585;51.502;7.218;2024-03-08T13:19:15;6.45;;;3.70;;
23058;SDS011;30585;51.502;7.218;2024-03-08T13:21:43;8.60;;;4.13;;
23058;SDS011;30585;51.502;7.218;2024-03-08T13:24:15;6.35;;;3.67;;
23058;SDS011;30585;51.502;7.218;2024-03-08T13:26:44;8.35;;;3.80;;
23058;SDS011;30585;51.502;7.218;2024-03-08T13:29:13;9.45;;;4.47;;
23058;SDS011;30585;51.502;7.218;2024-03-08T13:31:41;5.45;;;3.28;;
23058;SDS011;30585;51.502;7.218;2024-03-08T13:34:08;7.88;;;4.32;;
23058;SDS011;30585;51.502;7.218;2024-03-08T13:36:37;5.43;;;3.67;;
23058;SDS011;30585;51.502;7.218;2024-03-08T13:39:10;6.47;;;4.03;;
23058;SDS011;30585;51.502;7.218;2024-03-08T13:41:41;6.45;;;3.50;;
23058;SDS011;30585;51.502;7.218;2024-03-08T13:44:12;5.32;;;3.53;;
23058;SDS011;30585;51.502;7.218;2024-03-08T13:46:39;5.97;;;3.67;;
23058;SDS011;30585;51.502;7.218;2024-03-08T13:49:08;8.38;;;3.78;;
23058;SDS011;30585;51.502;7.218;2024-03-08T13:51:37;8.00;;;4.15;;
23058;SDS011;30585;51.502;7.218;2024-03-08T13:54:05;7.28;;;4.30;;
23058;SDS011;30585;51.502;7.218;2024-03-08T13:56:33;7.88;;;4.43;;
23058;SDS011;30585;51.502;7.218;2024-03-08T13:59:01;7.93;;;4.65;;
23058;SDS011;30585;51.502;7.218;2024-03-08T14:01:30;10.18;;;5.30;;
23058;SDS011;30585;51.502;7.218;2024-03-08T14:03:58;9.23;;;5.28;;
23058;SDS011;30585;51.502;7.218;2024-03-08T14:06:26;6.97;;;4.47;;
23058;SDS011;30585;51.502;7.218;2024-03-08T14:08:54;7.90;;;5.28;;
23058;SDS011;30585;51.502;7.218;2024-03-08T14:11:23;8.13;;;4.38;;
23058;SDS011;30585;51.502;7.218;2024-03-08T14:13:51;6.68;;;4.80;;
23058;SDS011;30585;51.502;7.218;2024-03-08T14:16:20;7.55;;;3.97;;
23058;SDS011;30585;51.502;7.218;2024-03-08T14:18:49;6.38;;;4.50;;
23058;SDS011;30585;51.502;7.218;2024-03-08T14:21:18;8.50;;;4.40;;
23058;SDS011;30585;51.502;7.218;2024-03-08T14:23:45;9.20;;;5.07;;
23058;SDS011;30585;51.502;7.218;2024-03-08T14:26:14;5.70;;;4.10;;
23058;SDS011;30585;51.502;7.218;2024-03-08T14:28:42;6.85;;;4.30;;
23058;SDS011;30585;51.502;7.218;2024-03-08T14:31:11;6.93;;;4.53;;
23058;SDS011;30585;51.502;7.218;2024-03-08T14:33:39;7.38;;;3.80;;
23058;SDS011;30585;51.502;7.218;2024-03-08T14:36:10;9.23;;;4.55;;
23058;SDS011;30585;51.502;7.218;2024-03-08T14:38:40;7.00;;;4.53;;
23058;SDS011;30585;51.502;7.218;2024-03-08T14:41:07;8.27;;;4.97;;
23058;SDS011;30585;51.502;7.218;2024-03-08T14:43:35;7.47;;;4.15;;
23058;SDS011;30585;51.502;7.218;2024-03-08T14:46:03;8.05;;;4.97;;
23058;SDS011;30585;51.502;7.218;2024-03-08T14:48:32;7.15;;;4.57;;
23058;SDS011;30585;51.502;7.218;2024-03-08T14:51:03;8.52;;;4.40;;
23058;SDS011;30585;51.502;7.218;2024-03-08T14:53:32;10.05;;;4.85;;
23058;SDS011;30585;51.502;7.218;2024-03-08T14:56:00;10.82;;;5.55;;
23058;SDS011;30585;51.502;7.218;2024-03-08T14:58:28;10.15;;;4.82;;